JST613 YSSY-YMAV
Flight info
| Callsign | JST613 |
|---|---|
| Flight time | 1h 8m |
| Altitude | 38000 |
| Route | WOL H65 LEECE Q29 ML W15 AV |
| Aircraft | A320/M-SDE3FGHIRWY/LB1 |
Departure
| Time | 2026-04-22 12:54 |
|---|---|
| Airport | Sydney Kingsford Smith International Airport (YSSY) |
Arrival
| Time | 2026-04-22 14:03 |
|---|---|
| Airport | Melbourne Avalon International Airport (YMAV) |
| Time | Latitude | Longitude | Altitude | Speed | Heading |
|---|---|---|---|---|---|
| 2026-04-22 12:25 | -33.93524 | 151.17765 | 30 ft | 0 kts | 279° |
| 2026-04-22 12:48 | -33.93526 | 151.17780 | 30 ft | 4 kts | 280° |
| 2026-04-22 12:48 | -33.93530 | 151.17812 | 30 ft | 4 kts | 271° |
| 2026-04-22 12:48 | -33.93527 | 151.17836 | 30 ft | 4 kts | 205° |
| 2026-04-22 12:48 | -33.93535 | 151.17836 | 30 ft | 4 kts | 190° |
| 2026-04-22 12:49 | -33.93562 | 151.17831 | 30 ft | 4 kts | 190° |
| 2026-04-22 12:49 | -33.93589 | 151.17825 | 30 ft | 4 kts | 190° |
| 2026-04-22 12:49 | -33.93613 | 151.17820 | 30 ft | 1 kts | 190° |
| 2026-04-22 12:51 | -33.93614 | 151.17820 | 30 ft | 1 kts | 190° |
| 2026-04-22 12:52 | -33.93628 | 151.17817 | 30 ft | 4 kts | 189° |
| 2026-04-22 12:52 | -33.93667 | 151.17806 | 30 ft | 8 kts | 196° |
| 2026-04-22 12:52 | -33.93737 | 151.17777 | 30 ft | 12 kts | 219° |
| 2026-04-22 12:52 | -33.93704 | 151.17688 | 30 ft | 14 kts | 311° |
| 2026-04-22 12:53 | -33.93644 | 151.17596 | 29 ft | 15 kts | 284° |
| 2026-04-22 12:53 | -33.93643 | 151.17489 | 28 ft | 11 kts | 260° |
| 2026-04-22 12:53 | -33.93669 | 151.17386 | 29 ft | 14 kts | 234° |
| 2026-04-22 12:53 | -33.93761 | 151.17372 | 29 ft | 22 kts | 168° |
| 2026-04-22 12:54 | -33.94037 | 151.17445 | 29 ft | 69 kts | 167° |
| 2026-04-22 12:54 | -33.94700 | 151.17617 | 30 ft | 126 kts | 168° |
| 2026-04-22 12:54 | -33.95702 | 151.17865 | 116 ft | 163 kts | 169° |
| 2026-04-22 12:54 | -33.96842 | 151.18133 | 707 ft | 172 kts | 168° |
| 2026-04-22 12:55 | -33.98056 | 151.18345 | 1337 ft | 182 kts | 175° |
| 2026-04-22 12:55 | -33.99341 | 151.18301 | 2037 ft | 185 kts | 185° |
| 2026-04-22 12:55 | -34.00588 | 151.18009 | 2791 ft | 181 kts | 191° |
| 2026-04-22 12:55 | -34.01809 | 151.17702 | 3474 ft | 182 kts | 186° |
| 2026-04-22 12:56 | -34.03141 | 151.17709 | 3763 ft | 205 kts | 166° |
| 2026-04-22 12:56 | -34.04598 | 151.18172 | 4162 ft | 229 kts | 163° |
| 2026-04-22 12:56 | -34.06191 | 151.18702 | 4706 ft | 249 kts | 164° |
| 2026-04-22 12:56 | -34.07910 | 151.19274 | 5597 ft | 256 kts | 163° |
| 2026-04-22 12:57 | -34.09612 | 151.19843 | 6537 ft | 259 kts | 163° |
| 2026-04-22 12:57 | -34.11359 | 151.20427 | 7432 ft | 263 kts | 163° |
| 2026-04-22 12:57 | -34.13133 | 151.21022 | 8297 ft | 266 kts | 162° |
| 2026-04-22 12:57 | -34.14933 | 151.21621 | 9169 ft | 271 kts | 162° |
| 2026-04-22 12:58 | -34.16768 | 151.22218 | 10054 ft | 275 kts | 165° |
| 2026-04-22 12:58 | -34.18697 | 151.22369 | 10805 ft | 286 kts | 182° |
| 2026-04-22 12:58 | -34.20698 | 151.21708 | 11179 ft | 312 kts | 203° |
| 2026-04-22 12:58 | -34.22470 | 151.20091 | 11793 ft | 329 kts | 224° |
| 2026-04-22 12:59 | -34.23978 | 151.17982 | 12498 ft | 334 kts | 226° |
| 2026-04-22 12:59 | -34.25504 | 151.15827 | 13209 ft | 340 kts | 225° |
| 2026-04-22 12:59 | -34.27035 | 151.13673 | 13915 ft | 345 kts | 225° |
| 2026-04-22 12:59 | -34.28610 | 151.11458 | 14569 ft | 350 kts | 225° |
| 2026-04-22 13:00 | -34.30205 | 151.09217 | 15245 ft | 353 kts | 225° |
| 2026-04-22 13:00 | -34.31811 | 151.06959 | 15919 ft | 355 kts | 225° |
| 2026-04-22 13:00 | -34.33426 | 151.04687 | 16613 ft | 357 kts | 225° |
| 2026-04-22 13:00 | -34.35051 | 151.02399 | 17270 ft | 360 kts | 225° |
| 2026-04-22 13:01 | -34.36687 | 151.00097 | 17937 ft | 362 kts | 224° |
| 2026-04-22 13:01 | -34.38485 | 150.97949 | 18391 ft | 369 kts | 218° |
| 2026-04-22 13:01 | -34.40441 | 150.95821 | 18529 ft | 386 kts | 218° |
| 2026-04-22 13:01 | -34.42449 | 150.93653 | 18800 ft | 398 kts | 218° |
| 2026-04-22 13:02 | -34.44529 | 150.91406 | 19284 ft | 402 kts | 218° |
| 2026-04-22 13:02 | -34.46623 | 150.89138 | 19838 ft | 405 kts | 218° |
| 2026-04-22 13:02 | -34.48725 | 150.86855 | 20412 ft | 407 kts | 218° |
| 2026-04-22 13:02 | -34.50844 | 150.84549 | 20977 ft | 410 kts | 218° |
| 2026-04-22 13:03 | -34.52970 | 150.82236 | 21505 ft | 412 kts | 218° |
| 2026-04-22 13:03 | -34.55098 | 150.79884 | 22026 ft | 416 kts | 221° |
| 2026-04-22 13:03 | -34.56994 | 150.77205 | 22531 ft | 423 kts | 230° |
| 2026-04-22 13:03 | -34.58736 | 150.74312 | 23040 ft | 425 kts | 230° |
| 2026-04-22 13:04 | -34.60481 | 150.71412 | 23589 ft | 426 kts | 230° |
| 2026-04-22 13:04 | -34.62206 | 150.68544 | 24063 ft | 428 kts | 230° |
| 2026-04-22 13:04 | -34.63964 | 150.65619 | 24492 ft | 429 kts | 230° |
| 2026-04-22 13:04 | -34.65730 | 150.62687 | 24938 ft | 430 kts | 230° |
| 2026-04-22 13:05 | -34.67496 | 150.59741 | 25362 ft | 431 kts | 230° |
| 2026-04-22 13:05 | -34.69259 | 150.56783 | 25784 ft | 432 kts | 230° |
| 2026-04-22 13:05 | -34.71021 | 150.53823 | 26216 ft | 434 kts | 230° |
| 2026-04-22 13:05 | -34.72792 | 150.50852 | 26672 ft | 435 kts | 230° |
| 2026-04-22 13:06 | -34.74549 | 150.47910 | 27107 ft | 436 kts | 230° |
| 2026-04-22 13:06 | -34.76332 | 150.44936 | 27510 ft | 436 kts | 231° |
| 2026-04-22 13:06 | -34.78124 | 150.41950 | 27944 ft | 438 kts | 231° |
| 2026-04-22 13:06 | -34.79921 | 150.38956 | 28364 ft | 439 kts | 231° |
| 2026-04-22 13:07 | -34.81720 | 150.35949 | 28764 ft | 441 kts | 231° |
| 2026-04-22 13:07 | -34.83525 | 150.32921 | 29158 ft | 442 kts | 231° |
| 2026-04-22 13:07 | -34.85332 | 150.29883 | 29600 ft | 443 kts | 231° |
| 2026-04-22 13:07 | -34.87134 | 150.26855 | 30215 ft | 440 kts | 231° |
| 2026-04-22 13:08 | -34.88927 | 150.23846 | 30788 ft | 437 kts | 231° |
| 2026-04-22 13:08 | -34.90684 | 150.20896 | 31282 ft | 435 kts | 231° |
| 2026-04-22 13:08 | -34.92459 | 150.17916 | 31784 ft | 433 kts | 231° |
| 2026-04-22 13:08 | -34.94223 | 150.14948 | 32283 ft | 432 kts | 231° |
| 2026-04-22 13:09 | -34.95979 | 150.11987 | 32768 ft | 430 kts | 231° |
| 2026-04-22 13:09 | -34.97726 | 150.09040 | 33239 ft | 429 kts | 232° |
| 2026-04-22 13:09 | -34.99471 | 150.06094 | 33734 ft | 427 kts | 232° |
| 2026-04-22 13:09 | -35.01203 | 150.03166 | 34245 ft | 425 kts | 232° |
| 2026-04-22 13:10 | -35.02926 | 150.00247 | 34709 ft | 423 kts | 232° |
| 2026-04-22 13:10 | -35.04623 | 149.97373 | 35124 ft | 422 kts | 232° |
| 2026-04-22 13:10 | -35.06334 | 149.94472 | 35538 ft | 420 kts | 232° |
| 2026-04-22 13:10 | -35.08041 | 149.91577 | 35932 ft | 420 kts | 232° |
| 2026-04-22 13:11 | -35.09744 | 149.88692 | 36311 ft | 419 kts | 232° |
| 2026-04-22 13:11 | -35.11446 | 149.85806 | 36658 ft | 418 kts | 232° |
| 2026-04-22 13:11 | -35.13142 | 149.82922 | 36979 ft | 418 kts | 233° |
| 2026-04-22 13:11 | -35.14833 | 149.80044 | 37308 ft | 417 kts | 233° |
| 2026-04-22 13:12 | -35.16526 | 149.77160 | 37648 ft | 417 kts | 233° |
| 2026-04-22 13:12 | -35.18216 | 149.74278 | 37997 ft | 416 kts | 233° |
| 2026-04-22 13:12 | -35.19878 | 149.71446 | 38342 ft | 415 kts | 233° |
| 2026-04-22 13:12 | -35.21565 | 149.68569 | 38458 ft | 416 kts | 233° |
| 2026-04-22 13:13 | -35.23247 | 149.65696 | 38465 ft | 417 kts | 233° |
| 2026-04-22 13:13 | -35.26619 | 149.59927 | 38453 ft | 417 kts | 233° |
| 2026-04-22 13:14 | -35.29994 | 149.54153 | 38455 ft | 417 kts | 233° |
| 2026-04-22 13:14 | -35.33370 | 149.48366 | 38451 ft | 418 kts | 233° |
| 2026-04-22 13:15 | -35.36715 | 149.42608 | 38451 ft | 418 kts | 233° |
| 2026-04-22 13:15 | -35.40088 | 149.36796 | 38451 ft | 418 kts | 233° |
| 2026-04-22 13:16 | -35.43464 | 149.30980 | 38466 ft | 419 kts | 233° |
| 2026-04-22 13:16 | -35.46845 | 149.25158 | 38465 ft | 419 kts | 233° |
| 2026-04-22 13:17 | -35.50212 | 149.19384 | 38469 ft | 419 kts | 233° |
| 2026-04-22 13:17 | -35.53594 | 149.13553 | 38473 ft | 419 kts | 234° |
| 2026-04-22 13:18 | -35.56964 | 149.07710 | 38483 ft | 419 kts | 234° |
| 2026-04-22 13:18 | -35.60322 | 149.01870 | 38487 ft | 419 kts | 234° |
| 2026-04-22 13:19 | -35.63657 | 148.96060 | 38487 ft | 419 kts | 234° |
| 2026-04-22 13:19 | -35.67013 | 148.90194 | 38468 ft | 421 kts | 234° |
| 2026-04-22 13:20 | -35.70374 | 148.84310 | 38482 ft | 420 kts | 234° |
| 2026-04-22 13:20 | -35.73732 | 148.78427 | 38490 ft | 420 kts | 234° |
| 2026-04-22 13:21 | -35.77064 | 148.72591 | 38487 ft | 420 kts | 234° |
| 2026-04-22 13:21 | -35.80418 | 148.66706 | 38485 ft | 420 kts | 234° |
| 2026-04-22 13:22 | -35.83770 | 148.60810 | 38479 ft | 420 kts | 234° |
| 2026-04-22 13:22 | -35.87116 | 148.54909 | 38484 ft | 420 kts | 234° |
| 2026-04-22 13:23 | -35.90460 | 148.49002 | 38476 ft | 419 kts | 235° |
| 2026-04-22 13:23 | -35.93773 | 148.43128 | 38464 ft | 420 kts | 234° |
| 2026-04-22 13:24 | -35.97108 | 148.37197 | 38461 ft | 421 kts | 234° |
| 2026-04-22 13:24 | -36.00452 | 148.31242 | 38454 ft | 422 kts | 234° |
| 2026-04-22 13:25 | -36.03787 | 148.25284 | 38457 ft | 422 kts | 234° |
| 2026-04-22 13:25 | -36.07126 | 148.19319 | 38444 ft | 422 kts | 234° |
| 2026-04-22 13:26 | -36.10441 | 148.13385 | 38435 ft | 422 kts | 234° |
| 2026-04-22 13:26 | -36.13775 | 148.07403 | 38438 ft | 422 kts | 234° |
| 2026-04-22 13:27 | -36.17123 | 148.01420 | 38437 ft | 423 kts | 234° |
| 2026-04-22 13:27 | -36.20470 | 147.95436 | 38440 ft | 423 kts | 234° |
| 2026-04-22 13:28 | -36.23784 | 147.89478 | 38435 ft | 423 kts | 234° |
| 2026-04-22 13:28 | -36.27121 | 147.83467 | 38439 ft | 423 kts | 234° |
| 2026-04-22 13:29 | -36.30464 | 147.77452 | 38441 ft | 424 kts | 234° |
| 2026-04-22 13:29 | -36.33804 | 147.71436 | 38440 ft | 424 kts | 234° |
| 2026-04-22 13:30 | -36.37138 | 147.65407 | 38440 ft | 424 kts | 235° |
| 2026-04-22 13:30 | -36.40441 | 147.59402 | 38440 ft | 424 kts | 235° |
| 2026-04-22 13:31 | -36.43767 | 147.53356 | 38446 ft | 424 kts | 235° |
| 2026-04-22 13:31 | -36.47095 | 147.47299 | 38437 ft | 424 kts | 235° |
| 2026-04-22 13:32 | -36.50411 | 147.41241 | 38446 ft | 424 kts | 235° |
| 2026-04-22 13:32 | -36.53703 | 147.35218 | 38432 ft | 424 kts | 235° |
| 2026-04-22 13:33 | -36.57014 | 147.29147 | 38438 ft | 424 kts | 235° |
| 2026-04-22 13:33 | -36.60323 | 147.23076 | 38433 ft | 424 kts | 235° |
| 2026-04-22 13:34 | -36.63631 | 147.17002 | 38430 ft | 424 kts | 235° |
| 2026-04-22 13:34 | -36.66912 | 147.10956 | 38420 ft | 424 kts | 235° |
| 2026-04-22 13:35 | -36.70215 | 147.04860 | 38428 ft | 424 kts | 236° |
| 2026-04-22 13:35 | -36.73509 | 146.98765 | 38424 ft | 424 kts | 236° |
| 2026-04-22 13:36 | -36.76805 | 146.92664 | 38431 ft | 424 kts | 236° |
| 2026-04-22 13:36 | -36.80080 | 146.86606 | 38445 ft | 424 kts | 236° |
| 2026-04-22 13:37 | -36.83368 | 146.80500 | 38439 ft | 423 kts | 236° |
| 2026-04-22 13:37 | -36.86648 | 146.74394 | 38444 ft | 423 kts | 236° |
| 2026-04-22 13:38 | -36.89917 | 146.68295 | 38435 ft | 422 kts | 236° |
| 2026-04-22 13:38 | -36.94790 | 146.59183 | 38436 ft | 422 kts | 236° |
| 2026-04-22 13:39 | -36.98051 | 146.53077 | 38437 ft | 422 kts | 236° |
| 2026-04-22 13:39 | -37.01304 | 146.46969 | 38427 ft | 422 kts | 236° |
| 2026-04-22 13:40 | -37.04553 | 146.40863 | 38426 ft | 422 kts | 236° |
| 2026-04-22 13:40 | -37.07779 | 146.34788 | 38437 ft | 422 kts | 236° |
| 2026-04-22 13:41 | -37.11022 | 146.28669 | 38436 ft | 421 kts | 236° |
| 2026-04-22 13:41 | -37.14248 | 146.22552 | 38436 ft | 421 kts | 236° |
| 2026-04-22 13:42 | -37.17484 | 146.16442 | 38263 ft | 420 kts | 236° |
| 2026-04-22 13:42 | -37.19101 | 146.13390 | 37994 ft | 420 kts | 236° |
| 2026-04-22 13:42 | -37.20693 | 146.10383 | 37731 ft | 420 kts | 237° |
| 2026-04-22 13:43 | -37.22304 | 146.07323 | 37451 ft | 420 kts | 237° |
| 2026-04-22 13:43 | -37.23908 | 146.04257 | 37176 ft | 421 kts | 236° |
| 2026-04-22 13:43 | -37.25515 | 146.01184 | 36916 ft | 421 kts | 237° |
| 2026-04-22 13:43 | -37.27126 | 145.98108 | 36654 ft | 422 kts | 237° |
| 2026-04-22 13:44 | -37.28739 | 145.95027 | 36182 ft | 423 kts | 237° |
| 2026-04-22 13:44 | -37.30363 | 145.91927 | 35444 ft | 426 kts | 237° |
| 2026-04-22 13:44 | -37.31999 | 145.88807 | 34646 ft | 430 kts | 237° |
| 2026-04-22 13:44 | -37.33635 | 145.85690 | 33684 ft | 436 kts | 237° |
| 2026-04-22 13:45 | -37.35299 | 145.82530 | 32737 ft | 430 kts | 238° |
| 2026-04-22 13:45 | -37.36933 | 145.79426 | 31804 ft | 423 kts | 238° |
| 2026-04-22 13:45 | -37.38544 | 145.76362 | 30839 ft | 417 kts | 238° |
| 2026-04-22 13:45 | -37.40133 | 145.73332 | 29720 ft | 413 kts | 238° |
| 2026-04-22 13:46 | -37.41700 | 145.70331 | 28653 ft | 411 kts | 238° |
| 2026-04-22 13:46 | -37.43277 | 145.67311 | 27585 ft | 415 kts | 238° |
| 2026-04-22 13:46 | -37.44755 | 145.64210 | 26759 ft | 413 kts | 245° |
| 2026-04-22 13:46 | -37.45878 | 145.60869 | 26093 ft | 415 kts | 252° |
| 2026-04-22 13:47 | -37.46778 | 145.57475 | 25369 ft | 414 kts | 252° |
| 2026-04-22 13:47 | -37.47691 | 145.54041 | 24644 ft | 414 kts | 252° |
| 2026-04-22 13:47 | -37.48608 | 145.50614 | 23924 ft | 413 kts | 252° |
| 2026-04-22 13:47 | -37.49525 | 145.47189 | 23137 ft | 411 kts | 252° |
| 2026-04-22 13:48 | -37.50429 | 145.43792 | 22425 ft | 408 kts | 252° |
| 2026-04-22 13:48 | -37.51326 | 145.40415 | 21737 ft | 405 kts | 252° |
| 2026-04-22 13:48 | -37.52214 | 145.37061 | 21055 ft | 403 kts | 252° |
| 2026-04-22 13:48 | -37.53096 | 145.33728 | 20375 ft | 401 kts | 253° |
| 2026-04-22 13:49 | -37.53960 | 145.30449 | 19750 ft | 398 kts | 253° |
| 2026-04-22 13:49 | -37.54827 | 145.27146 | 19126 ft | 396 kts | 253° |
| 2026-04-22 13:49 | -37.55691 | 145.23851 | 18506 ft | 394 kts | 253° |
| 2026-04-22 13:49 | -37.56547 | 145.20584 | 17879 ft | 391 kts | 252° |
| 2026-04-22 13:50 | -37.57112 | 145.18438 | 17490 ft | 388 kts | 252° |
| 2026-04-22 13:50 | -37.58237 | 145.14159 | 16706 ft | 382 kts | 252° |
| 2026-04-22 13:50 | -37.59067 | 145.10998 | 16122 ft | 378 kts | 252° |
| 2026-04-22 13:50 | -37.59886 | 145.07868 | 15525 ft | 374 kts | 252° |
| 2026-04-22 13:51 | -37.60687 | 145.04808 | 14924 ft | 371 kts | 252° |
| 2026-04-22 13:51 | -37.61491 | 145.01726 | 14312 ft | 369 kts | 252° |
| 2026-04-22 13:51 | -37.62288 | 144.98658 | 13628 ft | 368 kts | 252° |
| 2026-04-22 13:51 | -37.63081 | 144.95608 | 12986 ft | 364 kts | 252° |
| 2026-04-22 13:52 | -37.63869 | 144.92582 | 12348 ft | 362 kts | 251° |
| 2026-04-22 13:52 | -37.64651 | 144.89580 | 11706 ft | 359 kts | 251° |
| 2026-04-22 13:52 | -37.65419 | 144.86594 | 11196 ft | 353 kts | 253° |
| 2026-04-22 13:52 | -37.65857 | 144.83630 | 11076 ft | 337 kts | 265° |
| 2026-04-22 13:53 | -37.65831 | 144.80731 | 10946 ft | 324 kts | 274° |
| 2026-04-22 13:53 | -37.65659 | 144.77995 | 10827 ft | 312 kts | 274° |
| 2026-04-22 13:53 | -37.65495 | 144.75334 | 10616 ft | 296 kts | 273° |
| 2026-04-22 13:53 | -37.65337 | 144.72774 | 10098 ft | 289 kts | 273° |
| 2026-04-22 13:54 | -37.65182 | 144.70293 | 9878 ft | 284 kts | 274° |
| 2026-04-22 13:54 | -37.65030 | 144.67794 | 9747 ft | 286 kts | 273° |
| 2026-04-22 13:54 | -37.64878 | 144.65291 | 9555 ft | 288 kts | 274° |
| 2026-04-22 13:54 | -37.64774 | 144.63605 | 9203 ft | 292 kts | 273° |
| 2026-04-22 13:55 | -37.64618 | 144.61077 | 8938 ft | 287 kts | 273° |
| 2026-04-22 13:55 | -37.64437 | 144.57747 | 8415 ft | 287 kts | 268° |
| 2026-04-22 13:55 | -37.64921 | 144.55353 | 8096 ft | 282 kts | 240° |
| 2026-04-22 13:55 | -37.66231 | 144.53560 | 7754 ft | 280 kts | 212° |
| 2026-04-22 13:56 | -37.68042 | 144.52747 | 7306 ft | 276 kts | 186° |
| 2026-04-22 13:56 | -37.69956 | 144.52525 | 6623 ft | 277 kts | 185° |
| 2026-04-22 13:56 | -37.71874 | 144.52184 | 5741 ft | 284 kts | 189° |
| 2026-04-22 13:56 | -37.73162 | 144.51919 | 5409 ft | 279 kts | 188° |
| 2026-04-22 13:57 | -37.75037 | 144.51581 | 5340 ft | 272 kts | 187° |
| 2026-04-22 13:57 | -37.77460 | 144.51180 | 4995 ft | 256 kts | 187° |
| 2026-04-22 13:57 | -37.79187 | 144.50893 | 4632 ft | 247 kts | 187° |
| 2026-04-22 13:57 | -37.80861 | 144.50614 | 4294 ft | 238 kts | 187° |
| 2026-04-22 13:58 | -37.81935 | 144.50434 | 4088 ft | 232 kts | 187° |
| 2026-04-22 13:58 | -37.84017 | 144.50084 | 3694 ft | 220 kts | 187° |
| 2026-04-22 13:58 | -37.85521 | 144.49832 | 3400 ft | 217 kts | 186° |
| 2026-04-22 13:58 | -37.86498 | 144.49670 | 3205 ft | 212 kts | 186° |
| 2026-04-22 13:59 | -37.88378 | 144.49353 | 2871 ft | 193 kts | 187° |
| 2026-04-22 13:59 | -37.89650 | 144.49140 | 2604 ft | 177 kts | 186° |
| 2026-04-22 13:59 | -37.90816 | 144.48944 | 2388 ft | 165 kts | 187° |
| 2026-04-22 13:59 | -37.91904 | 144.48761 | 2185 ft | 153 kts | 188° |
| 2026-04-22 14:00 | -37.92942 | 144.48587 | 1978 ft | 149 kts | 187° |
| 2026-04-22 14:00 | -37.93959 | 144.48417 | 1776 ft | 146 kts | 187° |
| 2026-04-22 14:00 | -37.94966 | 144.48248 | 1581 ft | 147 kts | 188° |
| 2026-04-22 14:00 | -37.95634 | 144.48136 | 1457 ft | 146 kts | 188° |
| 2026-04-22 14:01 | -37.96644 | 144.47967 | 1269 ft | 146 kts | 188° |
| 2026-04-22 14:01 | -37.97651 | 144.47796 | 1065 ft | 145 kts | 188° |
| 2026-04-22 14:01 | -37.98642 | 144.47629 | 879 ft | 142 kts | 189° |
| 2026-04-22 14:01 | -37.99943 | 144.47413 | 669 ft | 143 kts | 188° |
| 2026-04-22 14:02 | -38.00604 | 144.47299 | 529 ft | 141 kts | 187° |
| 2026-04-22 14:02 | -38.01565 | 144.47133 | 307 ft | 138 kts | 188° |
| 2026-04-22 14:02 | -38.02506 | 144.46978 | 114 ft | 135 kts | 188° |
| 2026-04-22 14:02 | -38.03410 | 144.46831 | 45 ft | 125 kts | 189° |
| 2026-04-22 14:03 | -38.04133 | 144.46703 | 34 ft | 81 kts | 187° |
| 2026-04-22 14:03 | -38.04534 | 144.46636 | 36 ft | 35 kts | 187° |
| 2026-04-22 14:03 | -38.04638 | 144.46699 | 36 ft | 14 kts | 102° |
| 2026-04-22 14:03 | -38.04641 | 144.46815 | 36 ft | 14 kts | 63° |
| 2026-04-22 14:04 | -38.04542 | 144.46853 | 36 ft | 17 kts | 7° |
| 2026-04-22 14:04 | -38.04411 | 144.46873 | 33 ft | 21 kts | 6° |
| 2026-04-22 14:04 | -38.04256 | 144.46897 | 36 ft | 24 kts | 7° |
| 2026-04-22 14:04 | -38.04082 | 144.46927 | 35 ft | 27 kts | 8° |
| 2026-04-22 14:05 | -38.03884 | 144.46961 | 35 ft | 30 kts | 8° |
| 2026-04-22 14:05 | -38.03669 | 144.46998 | 35 ft | 33 kts | 8° |
| 2026-04-22 14:05 | -38.03250 | 144.47131 | 36 ft | 26 kts | 45° |
| 2026-04-22 14:06 | -38.03132 | 144.47300 | 36 ft | 26 kts | 31° |
| 2026-04-22 14:06 | -38.02957 | 144.47349 | 36 ft | 24 kts | 8° |
| 2026-04-22 14:06 | -38.02822 | 144.47355 | 36 ft | 14 kts | 340° |
| 2026-04-22 14:06 | -38.02770 | 144.47313 | 36 ft | 7 kts | 339° |
| 2026-04-22 14:07 | -38.02745 | 144.47312 | 34 ft | 4 kts | 1° |
| 2026-04-22 14:07 | -38.02729 | 144.47314 | 36 ft | 0 kts | 8° |